sensor_id;sensor_type;location;lat;lon;timestamp;pressure;altitude;pressure_sealevel;temperature;humidity
61136;BME280;47021;51.340;12.432;2023-05-29T00:40:45;100395.56;;;18.02;44.71
61136;BME280;47021;51.340;12.432;2023-05-29T00:54:10;100423.22;;;17.01;46.07
61136;BME280;47021;51.340;12.432;2023-05-29T00:56:38;100420.06;;;16.89;46.50
61136;BME280;47021;51.340;12.432;2023-05-29T01:01:50;100424.66;;;16.79;46.12
61136;BME280;47021;51.340;12.432;2023-05-29T01:04:18;100428.50;;;16.93;46.49
61136;BME280;47021;51.340;12.432;2023-05-29T01:06:50;100422.69;;;16.89;45.84
61136;BME280;47021;51.340;12.432;2023-05-29T01:09:17;100430.44;;;16.83;46.43
61136;BME280;47021;51.340;12.432;2023-05-29T01:24:56;100427.34;;;16.54;47.27
61136;BME280;47021;51.340;12.432;2023-05-29T01:27:29;100429.72;;;16.39;47.12
61136;BME280;47021;51.340;12.432;2023-05-29T01:32:39;100428.13;;;16.20;47.87
61136;BME280;47021;51.340;12.432;2023-05-29T01:37:56;100432.09;;;16.84;46.28
61136;BME280;47021;51.340;12.432;2023-05-29T01:40:21;100432.28;;;16.99;45.76
61136;BME280;47021;51.340;12.432;2023-05-29T01:42:48;100429.03;;;17.05;45.62
61136;BME280;47021;51.340;12.432;2023-05-29T01:45:22;100428.50;;;16.93;45.91
61136;BME280;47021;51.340;12.432;2023-05-29T01:47:54;100434.09;;;16.90;46.36
61136;BME280;47021;51.340;12.432;2023-05-29T01:50:20;100431.56;;;16.72;46.78
61136;BME280;47021;51.340;12.432;2023-05-29T01:53:00;100435.03;;;16.81;46.19
61136;BME280;47021;51.340;12.432;2023-05-29T01:55:25;100438.38;;;16.91;46.30
61136;BME280;47021;51.340;12.432;2023-05-29T01:58:03;100435.41;;;16.94;46.39
61136;BME280;47021;51.340;12.432;2023-05-29T02:00:44;100440.19;;;16.90;46.44
61136;BME280;47021;51.340;12.432;2023-05-29T02:05:53;100440.91;;;16.67;46.99
61136;BME280;47021;51.340;12.432;2023-05-29T02:08:19;100447.22;;;16.74;46.46
61136;BME280;47021;51.340;12.432;2023-05-29T02:16:12;100457.53;;;16.59;48.65
61136;BME280;47021;51.340;12.432;2023-05-29T02:18:37;100465.00;;;16.46;49.21
61136;BME280;47021;51.340;12.432;2023-05-29T02:21:05;100460.56;;;16.47;49.28
61136;BME280;47021;51.340;12.432;2023-05-29T02:23:30;100463.03;;;16.48;48.86
61136;BME280;47021;51.340;12.432;2023-05-29T02:25:57;100456.25;;;16.46;49.29
61136;BME280;47021;51.340;12.432;2023-05-29T02:28:23;100452.97;;;16.44;49.57
61136;BME280;47021;51.340;12.432;2023-05-29T02:30:52;100447.19;;;16.40;49.49
61136;BME280;47021;51.340;12.432;2023-05-29T02:33:17;100449.28;;;16.37;49.75
61136;BME280;47021;51.340;12.432;2023-05-29T02:35:50;100447.47;;;16.29;49.79
61136;BME280;47021;51.340;12.432;2023-05-29T02:38:23;100450.09;;;16.29;49.81
61136;BME280;47021;51.340;12.432;2023-05-29T02:40:56;100448.72;;;16.25;50.01
61136;BME280;47021;51.340;12.432;2023-05-29T02:43:23;100444.94;;;16.19;49.97
61136;BME280;47021;51.340;12.432;2023-05-29T02:45:49;100451.97;;;16.11;50.20
61136;BME280;47021;51.340;12.432;2023-05-29T02:48:14;100452.59;;;15.87;51.21
61136;BME280;47021;51.340;12.432;2023-05-29T02:50:39;100455.31;;;15.78;50.36
61136;BME280;47021;51.340;12.432;2023-05-29T02:53:05;100457.56;;;15.73;50.39
61136;BME280;47021;51.340;12.432;2023-05-29T02:55:39;100469.69;;;15.66;50.39
61136;BME280;47021;51.340;12.432;2023-05-29T02:58:05;100465.84;;;15.78;49.93
61136;BME280;47021;51.340;12.432;2023-05-29T03:03:14;100472.16;;;15.85;50.62
61136;BME280;47021;51.340;12.432;2023-05-29T03:05:39;100471.03;;;15.87;50.65
61136;BME280;47021;51.340;12.432;2023-05-29T03:08:11;100470.44;;;15.76;50.94
61136;BME280;47021;51.340;12.432;2023-05-29T03:10:42;100478.84;;;15.79;50.88
61136;BME280;47021;51.340;12.432;2023-05-29T03:13:08;100466.91;;;15.85;50.98
61136;BME280;47021;51.340;12.432;2023-05-29T03:15:47;100476.47;;;15.86;49.92
61136;BME280;47021;51.340;12.432;2023-05-29T03:18:12;100473.09;;;15.76;50.30
61136;BME280;47021;51.340;12.432;2023-05-29T03:20:37;100484.34;;;15.33;51.25
61136;BME280;47021;51.340;12.432;2023-05-29T03:23:05;100471.41;;;15.75;50.49
61136;BME280;47021;51.340;12.432;2023-05-29T03:25:31;100480.84;;;15.60;50.19
61136;BME280;47021;51.340;12.432;2023-05-29T03:27:56;100486.97;;;15.33;50.69
61136;BME280;47021;51.340;12.432;2023-05-29T03:30:24;100492.59;;;14.93;52.21
61136;BME280;47021;51.340;12.432;2023-05-29T03:32:50;100491.66;;;15.12;51.69
61136;BME280;47021;51.340;12.432;2023-05-29T03:35:27;100488.22;;;15.29;51.03
61136;BME280;47021;51.340;12.432;2023-05-29T03:37:55;100494.81;;;15.15;51.30
61136;BME280;47021;51.340;12.432;2023-05-29T03:43:04;100504.00;;;15.74;50.45
61136;BME280;47021;51.340;12.432;2023-05-29T03:45:43;100502.34;;;15.55;50.47
61136;BME280;47021;51.340;12.432;2023-05-29T03:48:08;100506.47;;;15.75;50.23
61136;BME280;47021;51.340;12.432;2023-05-29T03:50:48;100513.28;;;15.33;50.45
61136;BME280;47021;51.340;12.432;2023-05-29T03:53:14;100509.78;;;15.60;50.50
61136;BME280;47021;51.340;12.432;2023-05-29T03:55:47;100501.13;;;15.85;49.66
61136;BME280;47021;51.340;12.432;2023-05-29T04:30:06;100543.22;;;15.77;52.03
61136;BME280;47021;51.340;12.432;2023-05-29T04:32:37;100543.56;;;15.64;52.01
61136;BME280;47021;51.340;12.432;2023-05-29T04:35:03;100548.28;;;16.13;51.33
61136;BME280;47021;51.340;12.432;2023-05-29T04:37:30;100546.47;;;16.14;51.24
61136;BME280;47021;51.340;12.432;2023-05-29T04:39:55;100561.19;;;15.81;52.40
61136;BME280;47021;51.340;12.432;2023-05-29T04:42:21;100558.97;;;15.32;53.84
61136;BME280;47021;51.340;12.432;2023-05-29T04:44:47;100565.72;;;14.80;55.86
61136;BME280;47021;51.340;12.432;2023-05-29T04:47:14;100566.47;;;15.27;54.83
61136;BME280;47021;51.340;12.432;2023-05-29T04:49:42;100572.34;;;15.48;54.16
61136;BME280;47021;51.340;12.432;2023-05-29T04:52:09;100572.84;;;15.24;55.32
61136;BME280;47021;51.340;12.432;2023-05-29T04:54:38;100569.28;;;15.70;54.18
61136;BME280;47021;51.340;12.432;2023-05-29T04:57:04;100571.00;;;15.62;55.02
61136;BME280;47021;51.340;12.432;2023-05-29T04:59:29;100574.53;;;15.52;55.20
61136;BME280;47021;51.340;12.432;2023-05-29T05:29:49;100576.81;;;16.36;54.66
61136;BME280;47021;51.340;12.432;2023-05-29T05:37:49;100589.41;;;16.24;54.96
61136;BME280;47021;51.340;12.432;2023-05-29T05:48:34;100593.75;;;16.76;54.27
61136;BME280;47021;51.340;12.432;2023-05-29T05:54:02;100589.81;;;16.80;54.14
61136;BME280;47021;51.340;12.432;2023-05-29T06:14:49;100599.78;;;17.54;53.09
61136;BME280;47021;51.340;12.432;2023-05-29T06:17:22;100597.53;;;17.75;53.32
61136;BME280;47021;51.340;12.432;2023-05-29T06:19:48;100597.84;;;17.64;53.31
61136;BME280;47021;51.340;12.432;2023-05-29T06:22:13;100599.25;;;18.32;51.85
61136;BME280;47021;51.340;12.432;2023-05-29T06:27:09;100599.75;;;18.44;51.40
61136;BME280;47021;51.340;12.432;2023-05-29T06:29:35;100607.19;;;18.57;51.59
61136;BME280;47021;51.340;12.432;2023-05-29T06:32:14;100607.22;;;18.49;51.50
61136;BME280;47021;51.340;12.432;2023-05-29T06:43:07;100604.00;;;18.93;50.98
61136;BME280;47021;51.340;12.432;2023-05-29T06:45:46;100616.09;;;18.80;51.47
61136;BME280;47021;51.340;12.432;2023-05-29T06:48:11;100620.22;;;18.34;52.02
61136;BME280;47021;51.340;12.432;2023-05-29T06:50:43;100613.09;;;18.02;53.07
61136;BME280;47021;51.340;12.432;2023-05-29T06:53:08;100622.97;;;17.92;53.48
61136;BME280;47021;51.340;12.432;2023-05-29T06:55:35;100619.44;;;18.58;52.00
61136;BME280;47021;51.340;12.432;2023-05-29T06:58:08;100616.75;;;18.01;53.38
61136;BME280;47021;51.340;12.432;2023-05-29T07:00:34;100627.00;;;18.37;53.61
61136;BME280;47021;51.340;12.432;2023-05-29T07:16:53;100638.44;;;19.48;50.17
61136;BME280;47021;51.340;12.432;2023-05-29T07:19:25;100638.53;;;19.63;49.23
61136;BME280;47021;51.340;12.432;2023-05-29T07:21:58;100638.00;;;19.29;50.28
61136;BME280;47021;51.340;12.432;2023-05-29T07:32:46;100634.97;;;20.55;46.14
61136;BME280;47021;51.340;12.432;2023-05-29T07:54:52;100641.06;;;21.44;44.02
61136;BME280;47021;51.340;12.432;2023-05-29T08:36:17;100642.22;;;23.26;39.38
61136;BME280;47021;51.340;12.432;2023-05-29T09:06:22;100642.19;;;23.19;37.75
61136;BME280;47021;51.340;12.432;2023-05-29T12:59:23;100556.41;;;28.61;27.42
61136;BME280;47021;51.340;12.432;2023-05-29T13:02:01;100566.59;;;27.28;28.71
61136;BME280;47021;51.340;12.432;2023-05-29T13:04:32;100571.59;;;26.89;29.84
61136;BME280;47021;51.340;12.432;2023-05-29T16:35:38;100525.94;;;26.77;30.71
61136;BME280;47021;51.340;12.432;2023-05-29T16:40:58;100530.03;;;26.98;30.26
61136;BME280;47021;51.340;12.432;2023-05-29T19:28:25;100617.72;;;22.32;36.45
61136;BME280;47021;51.340;12.432;2023-05-29T20:28:55;100690.47;;;20.42;39.84
61136;BME280;47021;51.340;12.432;2023-05-29T20:37:08;100682.44;;;20.27;39.47
61136;BME280;47021;51.340;12.432;2023-05-29T21:42:57;100714.34;;;19.01;40.33
61136;BME280;47021;51.340;12.432;2023-05-29T21:59:06;100719.13;;;19.06;39.91
61136;BME280;47021;51.340;12.432;2023-05-29T22:37:14;100738.97;;;18.69;40.50
61136;BME280;47021;51.340;12.432;2023-05-29T22:50:40;100736.91;;;18.39;40.47
61136;BME280;47021;51.340;12.432;2023-05-29T23:40:40;100761.88;;;17.35;42.43
